createdAt,value
2018-05-27T00:02:09.914Z,4.15
2018-05-27T00:07:13.202Z,4.85
2018-05-27T00:12:16.415Z,6.18
2018-05-27T00:17:19.632Z,4.55
2018-05-27T00:22:23.270Z,4.05
2018-05-27T00:27:26.520Z,4.20
2018-05-27T00:32:29.749Z,3.85
2018-05-27T00:37:33.432Z,3.92
2018-05-27T00:42:36.678Z,3.65
2018-05-27T00:47:39.887Z,4.62
2018-05-27T00:52:43.123Z,4.30
2018-05-27T00:57:46.366Z,4.53
2018-05-27T01:02:49.994Z,4.15
2018-05-27T01:07:53.216Z,4.07
2018-05-27T01:12:56.451Z,4.03
2018-05-27T01:17:59.959Z,4.30
2018-05-27T01:23:04.100Z,3.97
2018-05-27T01:28:07.710Z,4.10
2018-05-27T01:33:11.329Z,4.20
2018-05-27T01:38:14.956Z,4.30
2018-05-27T01:43:18.163Z,3.90
2018-05-27T01:48:22.353Z,3.95
2018-05-27T01:53:25.965Z,4.18
2018-05-27T01:58:30.196Z,4.18
2018-05-27T02:03:33.419Z,3.80
2018-05-27T02:08:36.669Z,4.50
2018-05-27T02:13:39.991Z,4.97
2018-05-27T02:18:44.213Z,5.75
2018-05-27T02:23:47.822Z,4.87
2018-05-27T02:28:51.132Z,5.18
2018-05-27T02:33:54.867Z,5.55
2018-05-27T02:38:58.073Z,5.20
2018-05-27T02:44:01.289Z,4.57
2018-05-27T02:49:04.741Z,4.70
2018-05-27T02:54:07.973Z,5.07
2018-05-27T02:59:11.203Z,4.97
2018-05-27T03:04:14.438Z,5.97
2018-05-27T03:09:17.672Z,4.40
2018-05-27T03:14:20.901Z,4.53
2018-05-27T03:19:24.113Z,4.32
2018-05-27T03:24:27.458Z,4.25
2018-05-27T03:29:31.162Z,4.10
2018-05-27T03:34:34.391Z,3.30
2018-05-27T03:39:37.612Z,3.33
2018-05-27T03:44:40.827Z,3.10
2018-05-27T03:49:44.066Z,3.25
2018-05-27T03:54:47.372Z,3.25
2018-05-27T03:59:51.006Z,4.18
2018-05-27T04:05:06.012Z,3.10
2018-05-27T04:10:09.277Z,2.75
2018-05-27T04:15:12.529Z,2.70
2018-05-27T04:20:15.764Z,2.47
2018-05-27T04:25:19.410Z,2.50
2018-05-27T04:30:22.634Z,2.70
2018-05-27T04:35:25.887Z,2.72
2018-05-27T04:40:29.609Z,3.35
2018-05-27T04:45:32.913Z,2.90
2018-05-27T04:50:36.152Z,2.70
2018-05-27T04:55:39.375Z,2.45
2018-05-27T05:00:42.616Z,2.37
2018-05-27T05:05:45.829Z,2.28
2018-05-27T05:10:49.074Z,2.45
2018-05-27T05:15:52.306Z,2.97
2018-05-27T05:20:55.933Z,3.12
2018-05-27T05:25:59.181Z,2.80
2018-05-27T05:31:02.615Z,2.95
2018-05-27T05:36:06.325Z,2.80
2018-05-27T05:41:09.548Z,3.08
2018-05-27T05:46:12.759Z,2.95
2018-05-27T05:51:16.050Z,2.28
2018-05-27T05:56:19.330Z,1.83
2018-05-27T06:01:23.108Z,2.50
2018-05-27T06:06:26.341Z,2.65
2018-05-27T06:11:30.269Z,2.35
2018-05-27T06:16:33.903Z,2.05
2018-05-27T06:21:37.133Z,2.10
2018-05-27T06:26:40.374Z,2.40
2018-05-27T06:31:43.783Z,2.40
2018-05-27T06:36:47.390Z,2.37
2018-05-27T06:41:50.604Z,2.50
2018-05-27T06:46:54.289Z,1.95
2018-05-27T06:51:57.605Z,2.10
2018-05-27T06:57:01.229Z,2.12
2018-05-27T07:02:05.910Z,2.17
2018-05-27T07:07:09.218Z,2.17
2018-05-27T07:12:12.787Z,2.15
2018-05-27T07:17:17.307Z,2.47
2018-05-27T07:22:21.015Z,2.12
2018-05-27T07:27:24.652Z,2.97
2018-05-27T07:32:28.030Z,2.97
2018-05-27T07:37:31.665Z,3.17
2018-05-27T07:42:34.944Z,3.28
2018-05-27T07:47:38.610Z,3.22
2018-05-27T07:52:42.279Z,2.78
2018-05-27T07:57:45.538Z,3.30
2018-05-27T08:02:48.773Z,4.10
2018-05-27T08:07:52.437Z,4.40
2018-05-27T08:12:55.753Z,4.57
2018-05-27T08:17:59.075Z,4.03
2018-05-27T08:23:02.709Z,3.87
2018-05-27T08:28:06.008Z,3.28
2018-05-27T08:33:09.313Z,3.92
2018-05-27T08:38:12.605Z,3.80
2018-05-27T08:43:18.370Z,5.18
2018-05-27T08:48:22.067Z,4.30
2018-05-27T08:53:25.744Z,4.68
2018-05-27T08:58:28.982Z,4.87
2018-05-27T09:03:32.392Z,5.20
2018-05-27T09:08:36.097Z,5.03
2018-05-27T09:13:39.711Z,5.40
2018-05-27T09:18:42.982Z,4.95
2018-05-27T09:23:46.318Z,5.50
2018-05-27T09:28:49.564Z,4.75
2018-05-27T09:33:52.796Z,6.15
2018-05-27T09:38:56.441Z,5.97
2018-05-27T09:44:00.097Z,5.18
2018-05-27T09:49:03.306Z,5.12
2018-05-27T09:54:06.539Z,4.72
2018-05-27T09:59:10.184Z,5.60
2018-05-27T10:04:13.396Z,5.10
2018-05-27T10:09:16.786Z,5.57
2018-05-27T10:14:20.053Z,4.62
2018-05-27T10:19:23.914Z,6.20
2018-05-27T10:24:29.197Z,5.80
2018-05-27T10:29:32.747Z,5.97
2018-05-27T10:34:36.130Z,6.20
2018-05-27T10:39:39.358Z,6.97
2018-05-27T10:44:42.732Z,6.37
2018-05-27T10:49:46.379Z,5.45
2018-05-27T10:54:49.764Z,5.53
2018-05-27T10:59:53.610Z,5.35
2018-05-27T11:04:56.968Z,5.50
2018-05-27T11:10:00.703Z,5.30
2018-05-27T11:15:05.725Z,5.60
2018-05-27T11:20:09.367Z,4.90
2018-05-27T11:25:12.606Z,4.78
2018-05-27T11:30:15.835Z,5.00
2018-05-27T11:35:19.507Z,4.25
2018-05-27T11:40:23.371Z,4.22
2018-05-27T11:45:27.079Z,4.55
2018-05-27T11:50:30.785Z,4.15
2018-05-27T11:55:34.413Z,4.57
2018-05-27T12:00:37.799Z,4.62
2018-05-27T12:05:41.538Z,4.57
2018-05-27T12:10:44.802Z,3.85
2018-05-27T12:15:48.455Z,4.28
2018-05-27T12:20:51.825Z,3.70
2018-05-27T12:25:55.555Z,4.22
2018-05-27T12:30:58.800Z,3.78
2018-05-27T12:36:02.079Z,3.70
2018-05-27T12:41:12.964Z,3.33
2018-05-27T12:46:17.066Z,3.58
2018-05-27T12:51:20.318Z,3.47
2018-05-27T12:56:23.579Z,3.47
2018-05-27T13:01:26.812Z,3.42
2018-05-27T13:06:30.869Z,4.10
2018-05-27T13:11:34.265Z,3.55
2018-05-27T13:16:38.012Z,3.62
2018-05-27T13:21:41.193Z,3.50
2018-05-27T13:26:44.893Z,3.28
2018-05-27T13:31:48.514Z,3.30
2018-05-27T13:36:52.140Z,3.55
2018-05-27T13:41:55.371Z,3.12
2018-05-27T13:46:58.748Z,3.58
2018-05-27T13:52:01.974Z,3.30
2018-05-27T13:57:05.208Z,3.08
2018-05-27T14:02:08.447Z,3.37
2018-05-27T14:07:11.674Z,3.40
2018-05-27T14:12:14.921Z,3.55
2018-05-27T14:17:18.553Z,3.35
2018-05-27T14:22:21.802Z,3.55
2018-05-27T14:27:25.030Z,3.50
2018-05-27T14:32:28.661Z,3.10
2018-05-27T14:37:31.899Z,3.03
2018-05-27T14:42:35.126Z,3.50
2018-05-27T14:47:38.372Z,3.47
2018-05-27T14:52:41.627Z,3.37
2018-05-27T14:57:45.642Z,2.97
2018-05-27T15:02:48.898Z,3.47
2018-05-27T15:07:52.167Z,3.10
2018-05-27T15:12:55.805Z,2.80
2018-05-27T15:17:59.080Z,3.20
2018-05-27T15:23:02.353Z,3.00
2018-05-27T15:28:06.196Z,2.90
2018-05-27T15:33:09.834Z,2.70
2018-05-27T15:38:13.077Z,2.80
2018-05-27T15:43:16.315Z,2.70
2018-05-27T15:48:19.972Z,2.42
2018-05-27T15:53:23.255Z,2.15
2018-05-27T15:58:26.477Z,2.70
2018-05-27T16:03:29.729Z,2.75
2018-05-27T16:08:33.374Z,2.35
2018-05-27T16:13:36.638Z,2.58
2018-05-27T16:18:40.277Z,2.55
2018-05-27T16:23:44.095Z,2.70
2018-05-27T16:28:47.343Z,2.47
2018-05-27T16:33:50.683Z,2.47
2018-05-27T16:38:53.900Z,2.55
2018-05-27T16:43:57.139Z,2.65
2018-05-27T16:49:00.411Z,2.65
2018-05-27T16:54:03.694Z,2.37
2018-05-27T16:59:06.940Z,6.87
2018-05-27T17:04:10.177Z,2.30
2018-05-27T17:09:13.820Z,2.70
2018-05-27T17:14:17.431Z,2.50
2018-05-27T17:19:20.706Z,2.58
2018-05-27T17:24:24.451Z,2.70
2018-05-27T17:29:27.804Z,3.05
2018-05-27T17:34:31.513Z,3.20
2018-05-27T17:39:35.135Z,2.85
2018-05-27T17:44:38.755Z,2.90
2018-05-27T17:49:42.012Z,2.80
2018-05-27T17:54:45.342Z,2.67
2018-05-27T17:59:49.062Z,2.60
2018-05-27T18:04:52.787Z,2.78
2018-05-27T18:09:56.062Z,2.78
2018-05-27T18:14:59.302Z,2.65
2018-05-27T18:20:02.570Z,2.70
2018-05-27T18:25:06.187Z,2.87
2018-05-27T18:30:09.888Z,3.00
2018-05-27T18:35:13.537Z,2.75
2018-05-27T18:40:16.899Z,2.50
2018-05-27T18:45:20.537Z,3.12
2018-05-27T18:50:24.370Z,3.12
2018-05-27T18:55:27.729Z,2.92
2018-05-27T19:00:31.358Z,3.28
2018-05-27T19:05:34.570Z,2.78
2018-05-27T19:10:37.844Z,2.90
2018-05-27T19:15:41.878Z,3.03
2018-05-27T19:20:45.191Z,2.90
2018-05-27T19:25:48.436Z,3.08
2018-05-27T19:30:51.781Z,2.80
2018-05-27T19:35:55.795Z,2.80
2018-05-27T19:40:59.437Z,3.20
2018-05-27T19:46:02.651Z,3.03
2018-05-27T19:51:05.922Z,3.20
2018-05-27T19:56:09.145Z,2.85
2018-05-27T20:01:12.374Z,3.00
2018-05-27T20:06:15.600Z,2.87
2018-05-27T20:11:19.243Z,3.22
2018-05-27T20:16:22.491Z,2.95
2018-05-27T20:21:25.720Z,3.65
2018-05-27T20:26:29.344Z,2.90
2018-05-27T20:31:32.572Z,3.42
2018-05-27T20:36:35.807Z,3.37
2018-05-27T20:41:39.079Z,3.70
2018-05-27T20:46:42.328Z,3.50
2018-05-27T20:51:45.948Z,3.65
2018-05-27T20:56:49.578Z,3.53
2018-05-27T21:01:53.366Z,3.50
2018-05-27T21:06:57.015Z,3.60
2018-05-27T21:12:00.260Z,3.80
2018-05-27T21:17:03.553Z,3.50
2018-05-27T21:22:06.879Z,3.30
2018-05-27T21:27:10.523Z,3.42
2018-05-27T21:32:13.742Z,3.60
2018-05-27T21:37:17.104Z,3.30
2018-05-27T21:42:20.603Z,3.62
2018-05-27T21:47:23.896Z,3.53
2018-05-27T21:52:27.511Z,3.53
2018-05-27T21:57:31.140Z,3.12
2018-05-27T22:02:34.396Z,3.67
2018-05-27T22:07:37.627Z,3.47
2018-05-27T22:12:41.357Z,3.35
2018-05-27T22:17:44.578Z,3.65
2018-05-27T22:22:47.802Z,3.28
2018-05-27T22:27:51.060Z,4.40
2018-05-27T22:32:54.281Z,4.00
2018-05-27T22:37:57.506Z,3.80
2018-05-27T22:43:01.141Z,3.35
2018-05-27T22:48:05.058Z,3.70
2018-05-27T22:53:08.698Z,3.97
2018-05-27T22:58:11.919Z,3.67
2018-05-27T23:03:15.272Z,3.67
2018-05-27T23:08:19.469Z,3.90
2018-05-27T23:13:22.822Z,3.30
2018-05-27T23:18:26.071Z,3.20
2018-05-27T23:23:29.413Z,3.03
2018-05-27T23:28:32.682Z,2.97
2018-05-27T23:33:36.022Z,2.90
2018-05-27T23:38:39.244Z,3.25
2018-05-27T23:43:53.419Z,2.90
2018-05-27T23:48:56.660Z,2.78
2018-05-27T23:54:00.294Z,2.83
2018-05-27T23:59:06.043Z,3.10
